sensor_id;sensor_type;location;lat;lon;timestamp;temperature;humidity
70366;DHT22;57787;48.216;12.396;2023-09-18T00:00:50;15.30;89.80
70366;DHT22;57787;48.216;12.396;2023-09-18T00:03:17;15.30;89.80
70366;DHT22;57787;48.216;12.396;2023-09-18T00:05:46;15.30;89.80
70366;DHT22;57787;48.216;12.396;2023-09-18T00:08:15;15.30;89.80
70366;DHT22;57787;48.216;12.396;2023-09-18T00:10:42;15.30;89.90
70366;DHT22;57787;48.216;12.396;2023-09-18T00:13:12;15.20;89.90
70366;DHT22;57787;48.216;12.396;2023-09-18T00:15:39;15.20;89.80
70366;DHT22;57787;48.216;12.396;2023-09-18T00:18:07;15.10;89.70
70366;DHT22;57787;48.216;12.396;2023-09-18T00:20:35;15.10;89.80
70366;DHT22;57787;48.216;12.396;2023-09-18T00:23:02;15.00;89.80
70366;DHT22;57787;48.216;12.396;2023-09-18T00:25:29;15.10;89.90
70366;DHT22;57787;48.216;12.396;2023-09-18T00:27:57;15.00;89.90
70366;DHT22;57787;48.216;12.396;2023-09-18T00:30:24;15.00;89.90
70366;DHT22;57787;48.216;12.396;2023-09-18T00:32:51;15.00;89.80
70366;DHT22;57787;48.216;12.396;2023-09-18T00:35:18;14.90;89.90
70366;DHT22;57787;48.216;12.396;2023-09-18T00:37:45;14.90;90.10
70366;DHT22;57787;48.216;12.396;2023-09-18T00:40:12;14.90;90.10
70366;DHT22;57787;48.216;12.396;2023-09-18T00:42:39;14.90;90.20
70366;DHT22;57787;48.216;12.396;2023-09-18T00:45:06;14.90;90.20
70366;DHT22;57787;48.216;12.396;2023-09-18T00:47:33;14.90;90.20
70366;DHT22;57787;48.216;12.396;2023-09-18T00:50:00;14.90;90.20
70366;DHT22;57787;48.216;12.396;2023-09-18T00:52:27;14.90;90.20
70366;DHT22;57787;48.216;12.396;2023-09-18T00:54:54;14.90;90.30
70366;DHT22;57787;48.216;12.396;2023-09-18T00:57:22;14.90;90.40
70366;DHT22;57787;48.216;12.396;2023-09-18T00:59:49;14.90;90.40
70366;DHT22;57787;48.216;12.396;2023-09-18T01:02:16;14.90;90.50
70366;DHT22;57787;48.216;12.396;2023-09-18T01:04:44;14.90;90.50
70366;DHT22;57787;48.216;12.396;2023-09-18T01:07:11;14.90;90.40
70366;DHT22;57787;48.216;12.396;2023-09-18T01:09:39;14.90;90.40
70366;DHT22;57787;48.216;12.396;2023-09-18T01:15:12;14.90;90.50
70366;DHT22;57787;48.216;12.396;2023-09-18T01:17:40;14.90;90.60
70366;DHT22;57787;48.216;12.396;2023-09-18T01:20:10;14.90;90.80
70366;DHT22;57787;48.216;12.396;2023-09-18T01:22:39;14.90;90.80
70366;DHT22;57787;48.216;12.396;2023-09-18T01:25:05;14.80;90.50
70366;DHT22;57787;48.216;12.396;2023-09-18T01:27:33;14.80;90.40
70366;DHT22;57787;48.216;12.396;2023-09-18T01:30:01;14.80;90.30
70366;DHT22;57787;48.216;12.396;2023-09-18T01:32:29;14.70;90.20
70366;DHT22;57787;48.216;12.396;2023-09-18T01:34:57;14.70;90.20
70366;DHT22;57787;48.216;12.396;2023-09-18T01:37:27;14.70;90.20
70366;DHT22;57787;48.216;12.396;2023-09-18T01:39:54;14.60;90.10
70366;DHT22;57787;48.216;12.396;2023-09-18T01:42:27;14.60;89.90
70366;DHT22;57787;48.216;12.396;2023-09-18T01:44:54;14.60;89.90
70366;DHT22;57787;48.216;12.396;2023-09-18T01:47:22;14.50;90.00
70366;DHT22;57787;48.216;12.396;2023-09-18T01:49:55;14.50;90.20
70366;DHT22;57787;48.216;12.396;2023-09-18T01:52:23;14.50;90.10
70366;DHT22;57787;48.216;12.396;2023-09-18T01:54:52;14.50;90.10
70366;DHT22;57787;48.216;12.396;2023-09-18T01:57:19;14.50;90.10
70366;DHT22;57787;48.216;12.396;2023-09-18T01:59:47;14.40;90.10
70366;DHT22;57787;48.216;12.396;2023-09-18T02:02:14;14.40;90.00
70366;DHT22;57787;48.216;12.396;2023-09-18T02:04:50;14.40;90.20
70366;DHT22;57787;48.216;12.396;2023-09-18T02:07:33;14.40;90.10
70366;DHT22;57787;48.216;12.396;2023-09-18T02:10:00;14.30;90.50
70366;DHT22;57787;48.216;12.396;2023-09-18T02:12:27;14.30;90.50
70366;DHT22;57787;48.216;12.396;2023-09-18T02:14:54;14.40;90.70
70366;DHT22;57787;48.216;12.396;2023-09-18T02:17:24;14.30;90.60
70366;DHT22;57787;48.216;12.396;2023-09-18T02:19:52;14.30;90.80
70366;DHT22;57787;48.216;12.396;2023-09-18T02:22:19;14.30;90.70
70366;DHT22;57787;48.216;12.396;2023-09-18T02:24:45;14.30;90.70
70366;DHT22;57787;48.216;12.396;2023-09-18T02:27:12;14.20;90.60
70366;DHT22;57787;48.216;12.396;2023-09-18T02:29:42;14.20;90.60
70366;DHT22;57787;48.216;12.396;2023-09-18T02:32:08;14.20;90.70
70366;DHT22;57787;48.216;12.396;2023-09-18T02:34:37;14.20;90.80
70366;DHT22;57787;48.216;12.396;2023-09-18T02:37:03;14.20;90.80
70366;DHT22;57787;48.216;12.396;2023-09-18T02:39:30;14.10;90.70
70366;DHT22;57787;48.216;12.396;2023-09-18T02:41:57;14.10;90.80
70366;DHT22;57787;48.216;12.396;2023-09-18T02:44:24;14.10;90.80
70366;DHT22;57787;48.216;12.396;2023-09-18T02:46:51;14.10;90.70
70366;DHT22;57787;48.216;12.396;2023-09-18T02:49:19;14.10;90.70
70366;DHT22;57787;48.216;12.396;2023-09-18T02:51:47;14.10;90.70
70366;DHT22;57787;48.216;12.396;2023-09-18T02:54:15;14.00;90.80
70366;DHT22;57787;48.216;12.396;2023-09-18T02:56:42;14.00;91.20
70366;DHT22;57787;48.216;12.396;2023-09-18T02:59:09;14.10;91.30
70366;DHT22;57787;48.216;12.396;2023-09-18T03:01:36;14.10;91.10
70366;DHT22;57787;48.216;12.396;2023-09-18T03:04:03;14.10;91.20
70366;DHT22;57787;48.216;12.396;2023-09-18T03:06:31;14.10;91.00
70366;DHT22;57787;48.216;12.396;2023-09-18T03:08:58;14.10;91.10
70366;DHT22;57787;48.216;12.396;2023-09-18T03:11:25;14.00;91.20
70366;DHT22;57787;48.216;12.396;2023-09-18T03:13:54;14.00;91.20
70366;DHT22;57787;48.216;12.396;2023-09-18T03:16:22;14.00;90.90
70366;DHT22;57787;48.216;12.396;2023-09-18T03:18:49;13.90;90.70
70366;DHT22;57787;48.216;12.396;2023-09-18T03:21:16;13.90;90.80
70366;DHT22;57787;48.216;12.396;2023-09-18T03:23:43;13.90;90.80
70366;DHT22;57787;48.216;12.396;2023-09-18T03:26:11;13.90;90.80
70366;DHT22;57787;48.216;12.396;2023-09-18T03:28:38;13.80;90.80
70366;DHT22;57787;48.216;12.396;2023-09-18T03:31:05;13.80;90.70
70366;DHT22;57787;48.216;12.396;2023-09-18T03:33:33;13.80;90.70
70366;DHT22;57787;48.216;12.396;2023-09-18T03:36:00;13.80;90.90
70366;DHT22;57787;48.216;12.396;2023-09-18T03:38:27;13.80;91.10
70366;DHT22;57787;48.216;12.396;2023-09-18T03:40:58;13.80;91.20
70366;DHT22;57787;48.216;12.396;2023-09-18T03:43:25;13.70;91.00
70366;DHT22;57787;48.216;12.396;2023-09-18T03:45:52;13.70;90.90
70366;DHT22;57787;48.216;12.396;2023-09-18T03:48:22;13.70;91.00
70366;DHT22;57787;48.216;12.396;2023-09-18T03:50:49;13.60;91.00
70366;DHT22;57787;48.216;12.396;2023-09-18T03:53:16;13.60;90.90
70366;DHT22;57787;48.216;12.396;2023-09-18T03:55:42;13.60;91.00
70366;DHT22;57787;48.216;12.396;2023-09-18T03:58:09;13.60;91.10
70366;DHT22;57787;48.216;12.396;2023-09-18T04:00:37;13.60;91.20
70366;DHT22;57787;48.216;12.396;2023-09-18T04:03:04;13.60;91.20
70366;DHT22;57787;48.216;12.396;2023-09-18T04:05:31;13.60;91.00
70366;DHT22;57787;48.216;12.396;2023-09-18T04:07:58;13.50;91.00
70366;DHT22;57787;48.216;12.396;2023-09-18T04:10:25;13.50;91.10
70366;DHT22;57787;48.216;12.396;2023-09-18T04:12:52;13.50;91.00
70366;DHT22;57787;48.216;12.396;2023-09-18T04:15:20;13.50;91.10
70366;DHT22;57787;48.216;12.396;2023-09-18T04:17:49;13.50;91.00
70366;DHT22;57787;48.216;12.396;2023-09-18T04:20:16;13.40;91.10
70366;DHT22;57787;48.216;12.396;2023-09-18T04:22:44;13.40;91.00
70366;DHT22;57787;48.216;12.396;2023-09-18T04:25:11;13.40;91.00
70366;DHT22;57787;48.216;12.396;2023-09-18T04:27:38;13.40;91.10
70366;DHT22;57787;48.216;12.396;2023-09-18T04:30:06;13.40;91.20
70366;DHT22;57787;48.216;12.396;2023-09-18T04:32:37;13.40;91.10
70366;DHT22;57787;48.216;12.396;2023-09-18T04:35:06;13.30;91.20
70366;DHT22;57787;48.216;12.396;2023-09-18T04:37:35;13.30;91.20
70366;DHT22;57787;48.216;12.396;2023-09-18T04:40:06;13.30;91.10
70366;DHT22;57787;48.216;12.396;2023-09-18T04:42:37;13.30;91.10
70366;DHT22;57787;48.216;12.396;2023-09-18T04:45:05;13.30;91.10
70366;DHT22;57787;48.216;12.396;2023-09-18T04:47:32;13.30;91.20
70366;DHT22;57787;48.216;12.396;2023-09-18T04:49:59;13.30;91.10
70366;DHT22;57787;48.216;12.396;2023-09-18T04:52:26;13.30;91.10
70366;DHT22;57787;48.216;12.396;2023-09-18T04:54:53;13.30;91.10
70366;DHT22;57787;48.216;12.396;2023-09-18T04:57:21;13.30;91.10
70366;DHT22;57787;48.216;12.396;2023-09-18T04:59:49;13.30;91.30
70366;DHT22;57787;48.216;12.396;2023-09-18T05:02:31;13.30;91.40
70366;DHT22;57787;48.216;12.396;2023-09-18T05:04:58;13.40;91.30
70366;DHT22;57787;48.216;12.396;2023-09-18T05:07:25;13.40;91.30
70366;DHT22;57787;48.216;12.396;2023-09-18T05:09:52;13.50;91.40
70366;DHT22;57787;48.216;12.396;2023-09-18T05:12:19;13.60;91.40
70366;DHT22;57787;48.216;12.396;2023-09-18T05:14:46;13.70;91.50
70366;DHT22;57787;48.216;12.396;2023-09-18T05:17:14;13.80;91.20
70366;DHT22;57787;48.216;12.396;2023-09-18T05:19:42;13.80;91.10
70366;DHT22;57787;48.216;12.396;2023-09-18T05:22:10;13.90;91.00
70366;DHT22;57787;48.216;12.396;2023-09-18T05:24:38;13.90;90.90
70366;DHT22;57787;48.216;12.396;2023-09-18T05:27:04;14.00;90.80
70366;DHT22;57787;48.216;12.396;2023-09-18T05:29:34;14.00;90.70
70366;DHT22;57787;48.216;12.396;2023-09-18T05:32:03;14.10;90.40
70366;DHT22;57787;48.216;12.396;2023-09-18T05:34:30;14.10;90.20
70366;DHT22;57787;48.216;12.396;2023-09-18T05:36:58;14.10;90.20
70366;DHT22;57787;48.216;12.396;2023-09-18T05:39:25;14.30;90.30
70366;DHT22;57787;48.216;12.396;2023-09-18T05:41:53;14.30;89.80
70366;DHT22;57787;48.216;12.396;2023-09-18T05:44:20;14.40;90.00
70366;DHT22;57787;48.216;12.396;2023-09-18T05:46:46;14.50;89.80
70366;DHT22;57787;48.216;12.396;2023-09-18T05:49:14;14.60;89.70
70366;DHT22;57787;48.216;12.396;2023-09-18T05:51:41;14.70;89.40
70366;DHT22;57787;48.216;12.396;2023-09-18T05:54:08;14.80;89.40
70366;DHT22;57787;48.216;12.396;2023-09-18T05:56:35;14.90;89.00
70366;DHT22;57787;48.216;12.396;2023-09-18T05:59:02;15.00;88.60
70366;DHT22;57787;48.216;12.396;2023-09-18T06:01:31;15.10;88.90
70366;DHT22;57787;48.216;12.396;2023-09-18T06:04:00;15.20;88.70
70366;DHT22;57787;48.216;12.396;2023-09-18T06:06:30;15.30;88.70
70366;DHT22;57787;48.216;12.396;2023-09-18T06:08:57;15.40;88.80
70366;DHT22;57787;48.216;12.396;2023-09-18T06:11:24;15.60;88.60
70366;DHT22;57787;48.216;12.396;2023-09-18T06:13:50;15.80;88.50
70366;DHT22;57787;48.216;12.396;2023-09-18T06:16:17;15.90;88.40
70366;DHT22;57787;48.216;12.396;2023-09-18T06:18:44;16.00;88.40
70366;DHT22;57787;48.216;12.396;2023-09-18T06:21:15;16.20;88.60
70366;DHT22;57787;48.216;12.396;2023-09-18T06:23:48;16.40;88.40
70366;DHT22;57787;48.216;12.396;2023-09-18T06:26:17;16.50;88.50
70366;DHT22;57787;48.216;12.396;2023-09-18T06:28:45;16.70;88.00
70366;DHT22;57787;48.216;12.396;2023-09-18T06:31:11;16.90;87.20
70366;DHT22;57787;48.216;12.396;2023-09-18T06:33:41;17.10;87.20
70366;DHT22;57787;48.216;12.396;2023-09-18T06:36:08;17.30;86.90
70366;DHT22;57787;48.216;12.396;2023-09-18T06:38:35;17.40;86.40
70366;DHT22;57787;48.216;12.396;2023-09-18T06:41:01;17.70;86.40
70366;DHT22;57787;48.216;12.396;2023-09-18T06:43:28;17.90;86.10
70366;DHT22;57787;48.216;12.396;2023-09-18T06:45:56;18.10;85.60
70366;DHT22;57787;48.216;12.396;2023-09-18T06:48:24;18.30;84.10
70366;DHT22;57787;48.216;12.396;2023-09-18T06:50:51;18.60;83.50
70366;DHT22;57787;48.216;12.396;2023-09-18T06:53:18;18.80;81.60
70366;DHT22;57787;48.216;12.396;2023-09-18T06:55:44;18.90;81.50
70366;DHT22;57787;48.216;12.396;2023-09-18T06:58:11;19.20;81.70
70366;DHT22;57787;48.216;12.396;2023-09-18T07:00:39;19.40;80.10
70366;DHT22;57787;48.216;12.396;2023-09-18T07:03:06;19.70;78.00
70366;DHT22;57787;48.216;12.396;2023-09-18T07:05:33;19.90;77.20
70366;DHT22;57787;48.216;12.396;2023-09-18T07:08:00;20.00;76.90
70366;DHT22;57787;48.216;12.396;2023-09-18T07:10:27;20.10;75.90
70366;DHT22;57787;48.216;12.396;2023-09-18T07:12:55;20.10;76.40
70366;DHT22;57787;48.216;12.396;2023-09-18T07:15:22;20.30;77.40
70366;DHT22;57787;48.216;12.396;2023-09-18T07:17:49;20.50;75.40
70366;DHT22;57787;48.216;12.396;2023-09-18T07:20:16;20.70;75.30
70366;DHT22;57787;48.216;12.396;2023-09-18T07:22:46;20.90;73.80
70366;DHT22;57787;48.216;12.396;2023-09-18T07:25:14;21.20;72.50
70366;DHT22;57787;48.216;12.396;2023-09-18T07:27:42;21.40;72.70
70366;DHT22;57787;48.216;12.396;2023-09-18T07:30:13;21.60;72.00
70366;DHT22;57787;48.216;12.396;2023-09-18T07:32:44;21.70;69.60
70366;DHT22;57787;48.216;12.396;2023-09-18T07:35:11;21.80;70.70
70366;DHT22;57787;48.216;12.396;2023-09-18T07:37:40;22.00;70.90
70366;DHT22;57787;48.216;12.396;2023-09-18T07:40:08;22.30;70.60
70366;DHT22;57787;48.216;12.396;2023-09-18T07:42:37;22.40;67.90
70366;DHT22;57787;48.216;12.396;2023-09-18T07:45:04;22.40;69.00
70366;DHT22;57787;48.216;12.396;2023-09-18T07:47:31;22.40;69.50
70366;DHT22;57787;48.216;12.396;2023-09-18T07:49:59;22.30;69.20
70366;DHT22;57787;48.216;12.396;2023-09-18T07:52:26;22.10;71.00
70366;DHT22;57787;48.216;12.396;2023-09-18T07:54:55;22.00;71.20
70366;DHT22;57787;48.216;12.396;2023-09-18T07:57:23;22.10;72.40
70366;DHT22;57787;48.216;12.396;2023-09-18T07:59:50;22.10;68.80
70366;DHT22;57787;48.216;12.396;2023-09-18T08:02:19;22.20;69.50
70366;DHT22;57787;48.216;12.396;2023-09-18T08:04:46;22.30;68.90
70366;DHT22;57787;48.216;12.396;2023-09-18T08:07:13;22.30;68.20
70366;DHT22;57787;48.216;12.396;2023-09-18T08:09:40;22.50;67.60
70366;DHT22;57787;48.216;12.396;2023-09-18T08:12:07;22.70;66.90
70366;DHT22;57787;48.216;12.396;2023-09-18T08:14:35;22.80;68.00
70366;DHT22;57787;48.216;12.396;2023-09-18T08:17:03;22.90;67.00
70366;DHT22;57787;48.216;12.396;2023-09-18T08:19:36;23.20;68.80
70366;DHT22;57787;48.216;12.396;2023-09-18T08:22:03;23.40;67.20
70366;DHT22;57787;48.216;12.396;2023-09-18T08:24:31;23.70;64.70
70366;DHT22;57787;48.216;12.396;2023-09-18T08:26:58;23.80;65.20
70366;DHT22;57787;48.216;12.396;2023-09-18T08:29:24;23.80;64.00
70366;DHT22;57787;48.216;12.396;2023-09-18T08:31:52;23.90;63.40
70366;DHT22;57787;48.216;12.396;2023-09-18T08:34:19;24.00;65.30
70366;DHT22;57787;48.216;12.396;2023-09-18T08:36:49;24.10;65.50
70366;DHT22;57787;48.216;12.396;2023-09-18T08:39:15;24.10;64.60
70366;DHT22;57787;48.216;12.396;2023-09-18T08:41:43;24.10;65.70
70366;DHT22;57787;48.216;12.396;2023-09-18T08:44:10;24.20;65.00
70366;DHT22;57787;48.216;12.396;2023-09-18T08:46:38;24.10;65.70
70366;DHT22;57787;48.216;12.396;2023-09-18T08:49:05;24.00;66.10
70366;DHT22;57787;48.216;12.396;2023-09-18T08:51:35;24.10;66.40
70366;DHT22;57787;48.216;12.396;2023-09-18T08:54:04;24.30;67.60
70366;DHT22;57787;48.216;12.396;2023-09-18T08:59:15;24.80;65.20
70366;DHT22;57787;48.216;12.396;2023-09-18T09:01:44;25.00;64.30
70366;DHT22;57787;48.216;12.396;2023-09-18T09:06:52;25.20;64.30
70366;DHT22;57787;48.216;12.396;2023-09-18T09:09:25;25.40;62.20
70366;DHT22;57787;48.216;12.396;2023-09-18T09:11:59;25.50;63.40
70366;DHT22;57787;48.216;12.396;2023-09-18T09:14:26;25.60;63.20
70366;DHT22;57787;48.216;12.396;2023-09-18T09:16:57;25.80;63.70
70366;DHT22;57787;48.216;12.396;2023-09-18T09:27:41;26.80;61.70
70366;DHT22;57787;48.216;12.396;2023-09-18T09:30:08;27.10;61.50
70366;DHT22;57787;48.216;12.396;2023-09-18T09:35:22;27.40;59.00
70366;DHT22;57787;48.216;12.396;2023-09-18T09:37:50;27.50;59.10
70366;DHT22;57787;48.216;12.396;2023-09-18T09:40:21;27.50;58.10
70366;DHT22;57787;48.216;12.396;2023-09-18T09:42:50;27.50;58.40
70366;DHT22;57787;48.216;12.396;2023-09-18T09:50:43;27.60;56.30
70366;DHT22;57787;48.216;12.396;2023-09-18T09:53:14;27.60;54.50
70366;DHT22;57787;48.216;12.396;2023-09-18T09:55:41;27.60;56.00
70366;DHT22;57787;48.216;12.396;2023-09-18T09:58:08;27.80;52.90
70366;DHT22;57787;48.216;12.396;2023-09-18T10:00:42;27.80;55.60
70366;DHT22;57787;48.216;12.396;2023-09-18T10:03:11;28.00;54.00
70366;DHT22;57787;48.216;12.396;2023-09-18T10:05:40;27.90;54.50
70366;DHT22;57787;48.216;12.396;2023-09-18T10:08:11;28.00;53.40
70366;DHT22;57787;48.216;12.396;2023-09-18T10:10:43;28.10;56.90
70366;DHT22;57787;48.216;12.396;2023-09-18T10:13:23;27.90;55.20
70366;DHT22;57787;48.216;12.396;2023-09-18T10:15:53;27.90;53.40
70366;DHT22;57787;48.216;12.396;2023-09-18T10:18:26;27.90;55.60
70366;DHT22;57787;48.216;12.396;2023-09-18T10:20:57;27.90;55.80
70366;DHT22;57787;48.216;12.396;2023-09-18T10:23:27;28.00;55.70
70366;DHT22;57787;48.216;12.396;2023-09-18T10:26:01;27.70;55.70
70366;DHT22;57787;48.216;12.396;2023-09-18T10:28:30;27.60;55.00
70366;DHT22;57787;48.216;12.396;2023-09-18T10:30:57;27.70;56.40
70366;DHT22;57787;48.216;12.396;2023-09-18T10:33:25;27.70;56.10
70366;DHT22;57787;48.216;12.396;2023-09-18T10:35:53;27.60;57.50
70366;DHT22;57787;48.216;12.396;2023-09-18T10:38:22;27.60;55.50
70366;DHT22;57787;48.216;12.396;2023-09-18T10:40:49;27.60;55.80
70366;DHT22;57787;48.216;12.396;2023-09-18T10:43:17;27.50;56.80
70366;DHT22;57787;48.216;12.396;2023-09-18T10:45:45;27.40;58.00
70366;DHT22;57787;48.216;12.396;2023-09-18T10:48:12;27.30;56.40
70366;DHT22;57787;48.216;12.396;2023-09-18T10:50:41;27.30;55.90
70366;DHT22;57787;48.216;12.396;2023-09-18T10:53:10;27.10;55.80
70366;DHT22;57787;48.216;12.396;2023-09-18T10:55:36;27.20;57.00
70366;DHT22;57787;48.216;12.396;2023-09-18T10:58:04;27.20;56.90
70366;DHT22;57787;48.216;12.396;2023-09-18T11:00:32;27.30;55.30
70366;DHT22;57787;48.216;12.396;2023-09-18T11:03:10;27.40;55.20
70366;DHT22;57787;48.216;12.396;2023-09-18T11:05:38;27.30;56.90
70366;DHT22;57787;48.216;12.396;2023-09-18T11:13:34;27.60;55.80
70366;DHT22;57787;48.216;12.396;2023-09-18T11:16:47;27.50;55.00
70366;DHT22;57787;48.216;12.396;2023-09-18T11:18:53;27.50;54.20
70366;DHT22;57787;48.216;12.396;2023-09-18T11:21:24;27.50;55.90
70366;DHT22;57787;48.216;12.396;2023-09-18T11:24:01;27.40;54.50
70366;DHT22;57787;48.216;12.396;2023-09-18T11:26:50;27.50;55.30
70366;DHT22;57787;48.216;12.396;2023-09-18T11:29:16;27.80;55.80
70366;DHT22;57787;48.216;12.396;2023-09-18T11:34:13;28.40;55.30
70366;DHT22;57787;48.216;12.396;2023-09-18T11:36:40;28.70;55.00
70366;DHT22;57787;48.216;12.396;2023-09-18T11:39:07;28.70;53.90
70366;DHT22;57787;48.216;12.396;2023-09-18T11:41:36;28.70;52.40
70366;DHT22;57787;48.216;12.396;2023-09-18T11:46:48;28.50;54.40
70366;DHT22;57787;48.216;12.396;2023-09-18T11:49:21;28.60;55.50
70366;DHT22;57787;48.216;12.396;2023-09-18T11:51:51;28.60;53.90
70366;DHT22;57787;48.216;12.396;2023-09-18T11:54:19;28.70;52.00
70366;DHT22;57787;48.216;12.396;2023-09-18T11:56:47;28.60;52.80
70366;DHT22;57787;48.216;12.396;2023-09-18T11:59:14;28.60;54.60
70366;DHT22;57787;48.216;12.396;2023-09-18T12:01:41;28.30;53.70
70366;DHT22;57787;48.216;12.396;2023-09-18T12:04:13;28.00;55.20
70366;DHT22;57787;48.216;12.396;2023-09-18T12:06:42;27.90;54.50
70366;DHT22;57787;48.216;12.396;2023-09-18T12:09:08;27.80;54.90
70366;DHT22;57787;48.216;12.396;2023-09-18T12:11:36;27.70;55.90
70366;DHT22;57787;48.216;12.396;2023-09-18T12:16:47;27.60;54.70
70366;DHT22;57787;48.216;12.396;2023-09-18T12:19:17;27.80;53.80
70366;DHT22;57787;48.216;12.396;2023-09-18T12:21:46;28.00;53.80
70366;DHT22;57787;48.216;12.396;2023-09-18T12:35:09;28.00;55.40
70366;DHT22;57787;48.216;12.396;2023-09-18T12:37:45;27.70;54.40
70366;DHT22;57787;48.216;12.396;2023-09-18T12:48:21;27.30;52.80
70366;DHT22;57787;48.216;12.396;2023-09-18T12:58:47;27.30;54.40
70366;DHT22;57787;48.216;12.396;2023-09-18T13:07:09;26.60;55.80
70366;DHT22;57787;48.216;12.396;2023-09-18T13:25:48;24.70;61.50
70366;DHT22;57787;48.216;12.396;2023-09-18T13:28:15;24.70;61.90
70366;DHT22;57787;48.216;12.396;2023-09-18T13:36:16;24.90;60.80
70366;DHT22;57787;48.216;12.396;2023-09-18T13:54:55;23.10;63.00
70366;DHT22;57787;48.216;12.396;2023-09-18T14:13:46;21.70;68.40
70366;DHT22;57787;48.216;12.396;2023-09-18T14:16:14;21.50;68.40
70366;DHT22;57787;48.216;12.396;2023-09-18T14:18:41;21.40;69.10
70366;DHT22;57787;48.216;12.396;2023-09-18T14:21:09;21.30;68.90
70366;DHT22;57787;48.216;12.396;2023-09-18T14:23:36;21.30;69.80
70366;DHT22;57787;48.216;12.396;2023-09-18T14:26:04;21.10;70.00
70366;DHT22;57787;48.216;12.396;2023-09-18T14:28:31;21.00;69.70
70366;DHT22;57787;48.216;12.396;2023-09-18T14:31:02;20.90;70.70
70366;DHT22;57787;48.216;12.396;2023-09-18T14:33:29;20.80;70.60
70366;DHT22;57787;48.216;12.396;2023-09-18T14:35:56;20.80;71.40
70366;DHT22;57787;48.216;12.396;2023-09-18T14:38:23;20.60;71.30
70366;DHT22;57787;48.216;12.396;2023-09-18T14:40:50;20.40;71.00
70366;DHT22;57787;48.216;12.396;2023-09-18T14:43:17;20.30;71.30
70366;DHT22;57787;48.216;12.396;2023-09-18T14:45:45;20.20;72.10
70366;DHT22;57787;48.216;12.396;2023-09-18T14:50:54;19.90;74.80
70366;DHT22;57787;48.216;12.396;2023-09-18T14:53:21;19.80;76.10
70366;DHT22;57787;48.216;12.396;2023-09-18T14:55:48;19.80;78.10
70366;DHT22;57787;48.216;12.396;2023-09-18T14:58:17;19.70;77.60
70366;DHT22;57787;48.216;12.396;2023-09-18T15:00:49;19.80;79.30
70366;DHT22;57787;48.216;12.396;2023-09-18T15:03:16;19.80;79.20
70366;DHT22;57787;48.216;12.396;2023-09-18T15:05:43;19.80;78.70
70366;DHT22;57787;48.216;12.396;2023-09-18T15:08:10;19.80;78.60
70366;DHT22;57787;48.216;12.396;2023-09-18T15:10:37;19.80;79.50
70366;DHT22;57787;48.216;12.396;2023-09-18T15:13:03;19.80;79.30
70366;DHT22;57787;48.216;12.396;2023-09-18T15:15:31;19.80;78.80
70366;DHT22;57787;48.216;12.396;2023-09-18T15:17:57;19.80;79.00
70366;DHT22;57787;48.216;12.396;2023-09-18T15:20:24;19.70;79.00
70366;DHT22;57787;48.216;12.396;2023-09-18T15:22:52;19.60;79.40
70366;DHT22;57787;48.216;12.396;2023-09-18T15:25:22;19.60;79.50
70366;DHT22;57787;48.216;12.396;2023-09-18T15:27:49;19.50;79.40
70366;DHT22;57787;48.216;12.396;2023-09-18T15:30:23;19.60;80.30
70366;DHT22;57787;48.216;12.396;2023-09-18T15:32:52;19.60;80.50
70366;DHT22;57787;48.216;12.396;2023-09-18T15:35:23;19.50;80.30
70366;DHT22;57787;48.216;12.396;2023-09-18T15:37:51;19.40;80.60
70366;DHT22;57787;48.216;12.396;2023-09-18T15:40:19;19.30;80.50
70366;DHT22;57787;48.216;12.396;2023-09-18T15:42:48;19.20;80.80
70366;DHT22;57787;48.216;12.396;2023-09-18T15:45:17;19.10;81.90
70366;DHT22;57787;48.216;12.396;2023-09-18T15:47:44;19.00;82.00
70366;DHT22;57787;48.216;12.396;2023-09-18T15:50:12;18.90;82.10
70366;DHT22;57787;48.216;12.396;2023-09-18T15:52:39;18.90;82.40
70366;DHT22;57787;48.216;12.396;2023-09-18T15:55:06;18.90;82.60
70366;DHT22;57787;48.216;12.396;2023-09-18T15:57:34;18.80;83.00
70366;DHT22;57787;48.216;12.396;2023-09-18T16:00:02;18.80;83.10
70366;DHT22;57787;48.216;12.396;2023-09-18T16:02:30;18.80;83.30
70366;DHT22;57787;48.216;12.396;2023-09-18T16:05:00;18.80;83.40
70366;DHT22;57787;48.216;12.396;2023-09-18T16:07:27;18.80;83.40
70366;DHT22;57787;48.216;12.396;2023-09-18T16:09:54;18.70;83.50
70366;DHT22;57787;48.216;12.396;2023-09-18T16:12:21;18.70;83.60
70366;DHT22;57787;48.216;12.396;2023-09-18T16:14:48;18.70;83.70
70366;DHT22;57787;48.216;12.396;2023-09-18T16:17:15;18.70;83.80
70366;DHT22;57787;48.216;12.396;2023-09-18T16:19:42;18.60;83.90
70366;DHT22;57787;48.216;12.396;2023-09-18T16:22:09;18.60;84.20
70366;DHT22;57787;48.216;12.396;2023-09-18T16:24:37;18.60;84.30
70366;DHT22;57787;48.216;12.396;2023-09-18T16:27:04;18.60;84.70
70366;DHT22;57787;48.216;12.396;2023-09-18T16:29:34;18.50;84.90
70366;DHT22;57787;48.216;12.396;2023-09-18T16:32:01;18.50;85.30
70366;DHT22;57787;48.216;12.396;2023-09-18T16:34:29;18.40;85.30
70366;DHT22;57787;48.216;12.396;2023-09-18T16:36:56;18.40;85.40
70366;DHT22;57787;48.216;12.396;2023-09-18T16:39:22;18.40;85.20
70366;DHT22;57787;48.216;12.396;2023-09-18T16:41:55;18.40;85.20
70366;DHT22;57787;48.216;12.396;2023-09-18T16:44:41;18.30;85.50
70366;DHT22;57787;48.216;12.396;2023-09-18T16:47:09;18.30;85.50
70366;DHT22;57787;48.216;12.396;2023-09-18T16:49:38;18.30;85.40
70366;DHT22;57787;48.216;12.396;2023-09-18T16:52:06;18.30;85.50
70366;DHT22;57787;48.216;12.396;2023-09-18T16:54:32;18.30;85.50
70366;DHT22;57787;48.216;12.396;2023-09-18T16:56:59;18.30;85.40
70366;DHT22;57787;48.216;12.396;2023-09-18T16:59:26;18.30;85.80
70366;DHT22;57787;48.216;12.396;2023-09-18T17:01:56;18.20;86.10
70366;DHT22;57787;48.216;12.396;2023-09-18T17:04:23;18.20;86.20
70366;DHT22;57787;48.216;12.396;2023-09-18T17:06:50;18.20;86.10
70366;DHT22;57787;48.216;12.396;2023-09-18T17:09:17;18.20;86.00
70366;DHT22;57787;48.216;12.396;2023-09-18T17:11:47;18.20;86.10
70366;DHT22;57787;48.216;12.396;2023-09-18T17:14:14;18.10;86.10
70366;DHT22;57787;48.216;12.396;2023-09-18T17:16:45;18.10;86.40
70366;DHT22;57787;48.216;12.396;2023-09-18T17:19:12;18.10;86.40
70366;DHT22;57787;48.216;12.396;2023-09-18T17:21:39;18.10;86.50
70366;DHT22;57787;48.216;12.396;2023-09-18T17:24:06;18.00;86.50
70366;DHT22;57787;48.216;12.396;2023-09-18T17:26:33;18.00;86.50
70366;DHT22;57787;48.216;12.396;2023-09-18T17:29:00;18.00;86.60